Bushy Park, Australia
Current Conditions -  °F | °C
As of 3:30 PM on Monday 20 Oct 2014 (Local Time) from YMHB Reporting Station
Few Clouds Few Clouds  
Wind Chill: 13°   Ceiling: Unl
Heat Index: 13°   Visibility: 6mi
Dew Point:   Wind: 13mph
Humidity: 44%   Direction: 150°SSE
Pressure: 30.5"   Gusts: NA
Location:  42.7°S, 146.88°E
Report Text: YMHB 200430Z 15011KT 9999 FEW050 13/01 Q1033
Loading
Personal Weather Stations






























Interactive Weather Map
Tropical Storm Tracking
New forecast layout! Learn more

10-Day Weather Forecast

Advertisements
Track Severe Weather on mobile